Airfield :
LOGIN :

Register | Disclaimer

   EN    FR    IT 

 










Legend :    VFR   Marginal VFR   IFR   Intensive IFR   Very Intensive IFR
Visi :
Ceiling :
>= 8 km
>= 3000ft
5 to 8 km
1000 to 3000 ft
1500m to 5 km
500 to 1000 ft
800 to 1500m
200 to 500 ft
< 800m
< 200 ft
Symbols :   Thunderstorms  Fog  Heavy snow  Heavy precipitations  Wind > 20 kt
SIGMETs :     Misc.  Thunderstorms  Icing  Turbulence  Mountain Waves  Volcanic Ashes







- Airport Elevation : 408 ft
- IATA code : FKB


EDSB - Karlsruhe Baden Baden

CURRENT METAR :
  • 262050Z VRB02KT 9999 MIFG NSC 12/11 Q1022

EXPIRED METARs :
  • 262020Z 00000KT 9999 MIFG NSC 12/12 Q1022
  • 261950Z 00000KT 9999 MIFG NSC 13/13 Q1022
  • 261920Z 31002KT 9999 MIFG NSC 13/12 Q1022
  • 261850Z VRB02KT CAVOK 14/13 Q1022
  • 261820Z VRB02KT CAVOK 14/12 Q1021

TAF TAF EDSB
Valid from the 26 at 18:00 until the 27 at 18:00 UTC


261700Z 2618/2718 VRB03KT CAVOK
BECMG 2700/2703 0400 FG VV001
BECMG 2708/2711 6000 SCT003
No reported NOTAMs for that airfield.



MET'MAP, your aeronautical weather chart ! - Copyright ORBIFLY December 2007 - Disclaimer

ORBIFLY MET'MAP TEAM :

Programming & Development : Alexandra Zaïnal
Concept & Development : Baudouin d'Aumeries
Co-Development & Prog : Marc-Olivier Méhu
Technical & hardware support : Manuel Goepfert

Contact : metmap@orbifly.com




SOURCES & CREDITS :

   NOAA